createdAt,value
2023-01-05T00:01:44.309Z,10.84
2023-01-05T00:04:45.851Z,10.85
2023-01-05T00:07:47.241Z,10.91
2023-01-05T00:11:07.428Z,10.90
2023-01-05T00:14:35.910Z,11.01
2023-01-05T00:17:55.823Z,10.97
2023-01-05T00:21:35.367Z,10.97
2023-01-05T00:24:36.766Z,10.94
2023-01-05T00:27:38.759Z,10.98
2023-01-05T00:30:45.497Z,11.02
2023-01-05T00:33:46.928Z,11.01
2023-01-05T00:36:48.357Z,10.99
2023-01-05T00:39:50.099Z,11.02
2023-01-05T00:42:51.557Z,11.00
2023-01-05T00:45:52.977Z,10.97
2023-01-05T00:48:54.390Z,10.93
2023-01-05T00:51:55.778Z,10.94
2023-01-05T00:54:57.207Z,10.91
2023-01-05T00:57:58.605Z,10.96
2023-01-05T01:01:00.080Z,10.91
2023-01-05T01:04:01.566Z,10.88
2023-01-05T01:07:03.738Z,10.93
2023-01-05T01:10:06.479Z,10.96
2023-01-05T01:13:08.966Z,10.94
2023-01-05T01:16:13.423Z,10.98
2023-01-05T01:19:20.489Z,11.02
2023-01-05T01:22:22.748Z,11.05
2023-01-05T01:25:24.133Z,11.04
2023-01-05T01:28:25.547Z,11.01
2023-01-05T01:31:26.962Z,11.03
2023-01-05T01:34:28.426Z,11.05
2023-01-05T01:37:29.835Z,11.04
2023-01-05T01:40:43.584Z,11.01
2023-01-05T01:43:53.808Z,11.02
2023-01-05T01:46:57.252Z,11.02
2023-01-05T01:50:16.073Z,11.02
2023-01-05T01:53:24.046Z,11.01
2023-01-05T01:56:29.817Z,11.09
2023-01-05T01:59:31.789Z,11.11
2023-01-05T02:02:33.922Z,11.11
2023-01-05T02:05:37.944Z,11.13
2023-01-05T02:08:39.499Z,11.09
2023-01-05T02:11:58.052Z,11.21
2023-01-05T02:15:15.286Z,11.19
2023-01-05T02:18:35.634Z,11.13
2023-01-05T02:21:53.787Z,11.04
2023-01-05T02:25:14.514Z,11.05
2023-01-05T02:28:40.531Z,11.01
2023-01-05T02:31:57.189Z,10.96
2023-01-05T02:35:13.700Z,10.98
2023-01-05T02:38:29.931Z,11.01
2023-01-05T02:41:58.800Z,10.99
2023-01-05T02:45:02.496Z,11.05
2023-01-05T02:48:04.798Z,11.04
2023-01-05T02:51:13.856Z,11.04
2023-01-05T02:54:25.748Z,11.04
2023-01-05T02:57:48.027Z,11.07
2023-01-05T03:00:59.363Z,11.17
2023-01-05T03:04:09.688Z,11.20
2023-01-05T03:07:18.061Z,11.26
2023-01-05T03:10:40.216Z,11.33
2023-01-05T03:13:45.996Z,11.40
2023-01-05T03:16:54.555Z,11.36
2023-01-05T03:19:59.778Z,11.43
2023-01-05T03:23:24.274Z,11.53
2023-01-05T03:26:44.793Z,11.44
2023-01-05T03:30:06.082Z,11.45
2023-01-05T03:33:37.225Z,11.54
2023-01-05T03:36:47.502Z,11.56
2023-01-05T03:39:49.347Z,11.55
2023-01-05T03:42:51.190Z,11.54
2023-01-05T03:45:56.271Z,11.62
2023-01-05T03:49:01.151Z,11.58
2023-01-05T03:52:02.994Z,11.69
2023-01-05T03:55:05.223Z,11.69
2023-01-05T03:58:07.912Z,11.62
2023-01-05T04:01:10.099Z,11.66
2023-01-05T04:04:13.844Z,11.69
2023-01-05T04:07:15.513Z,11.68
2023-01-05T04:10:17.106Z,11.68
2023-01-05T04:13:19.277Z,11.70
2023-01-05T04:16:20.975Z,11.76
2023-01-05T04:19:24.470Z,11.77
2023-01-05T04:22:28.411Z,11.74
2023-01-05T04:25:30.406Z,11.82
2023-01-05T04:28:39.248Z,11.71
2023-01-05T04:31:40.724Z,11.77
2023-01-05T04:34:42.930Z,11.79
2023-01-05T04:37:44.515Z,11.85
2023-01-05T04:40:50.571Z,11.86
2023-01-05T04:43:53.853Z,11.84
2023-01-05T04:46:55.797Z,11.89
2023-01-05T04:49:58.569Z,12.02
2023-01-05T04:53:00.201Z,12.07
2023-01-05T04:56:04.491Z,12.11
2023-01-05T04:59:10.881Z,12.06
2023-01-05T05:02:12.820Z,11.88
2023-01-05T05:05:17.054Z,11.84
2023-01-05T05:08:18.588Z,11.84
2023-01-05T05:11:20.528Z,11.81
2023-01-05T05:14:23.866Z,11.88
2023-01-05T05:17:25.853Z,11.95
2023-01-05T05:20:27.300Z,12.11
2023-01-05T05:23:29.014Z,12.13
2023-01-05T05:26:32.183Z,12.20
2023-01-05T05:29:34.489Z,12.32
2023-01-05T05:32:40.846Z,12.42
2023-01-05T05:35:45.265Z,12.41
2023-01-05T05:38:46.668Z,12.31
2023-01-05T05:41:48.132Z,12.32
2023-01-05T05:44:49.582Z,12.39
2023-01-05T05:47:51.034Z,12.35
2023-01-05T05:50:52.452Z,12.33
2023-01-05T05:53:53.875Z,12.28
2023-01-05T05:56:55.471Z,12.29
2023-01-05T05:59:56.936Z,12.34
2023-01-05T06:02:58.452Z,12.32
2023-01-05T06:06:01.433Z,12.31
2023-01-05T06:09:02.850Z,12.18
2023-01-05T06:12:04.597Z,12.23
2023-01-05T06:15:06.827Z,12.25
2023-01-05T06:18:08.616Z,12.18
2023-01-05T06:21:10.086Z,12.21
2023-01-05T06:24:11.495Z,12.20
2023-01-05T06:27:12.947Z,12.14
2023-01-05T06:30:14.543Z,12.20
2023-01-05T06:33:15.938Z,12.06
2023-01-05T06:36:17.416Z,12.10
2023-01-05T06:39:18.859Z,12.17
2023-01-05T06:42:23.449Z,12.04
2023-01-05T06:45:25.209Z,11.99
2023-01-05T06:48:26.736Z,11.99
2023-01-05T06:51:28.198Z,12.02
2023-01-05T06:54:29.595Z,12.00
2023-01-05T06:57:31.031Z,11.92
2023-01-05T07:00:32.635Z,11.86
2023-01-05T07:03:34.153Z,11.88
2023-01-05T07:06:36.033Z,11.96
2023-01-05T07:09:37.462Z,11.80
2023-01-05T07:12:38.838Z,11.84
2023-01-05T07:15:40.208Z,11.84
2023-01-05T07:18:41.604Z,11.89
2023-01-05T07:21:43.027Z,11.74
2023-01-05T07:24:44.444Z,11.79
2023-01-05T07:27:50.995Z,11.77
2023-01-05T07:30:52.618Z,11.79
2023-01-05T07:33:53.977Z,11.85
2023-01-05T07:36:55.345Z,11.85
2023-01-05T07:39:56.751Z,11.90
2023-01-05T07:42:58.225Z,11.78
2023-01-05T07:46:00.821Z,11.89
2023-01-05T07:49:02.524Z,11.86
2023-01-05T07:52:04.094Z,11.90
2023-01-05T07:55:06.460Z,12.02
2023-01-05T07:58:07.862Z,12.14
2023-01-05T08:01:11.890Z,12.20
2023-01-05T08:04:13.396Z,12.13
2023-01-05T08:07:15.681Z,12.02
2023-01-05T08:10:29.149Z,12.07
2023-01-05T08:13:49.238Z,11.99
2023-01-05T08:16:50.838Z,11.99
2023-01-05T08:19:52.304Z,12.00
2023-01-05T08:22:54.056Z,11.88
2023-01-05T08:25:55.647Z,11.83
2023-01-05T08:28:57.027Z,11.79
2023-01-05T08:31:58.528Z,11.87
2023-01-05T08:34:59.937Z,12.00
2023-01-05T08:38:01.399Z,12.02
2023-01-05T08:41:03.324Z,12.02
2023-01-05T08:44:12.003Z,12.13
2023-01-05T08:47:13.406Z,12.13
2023-01-05T08:50:14.913Z,12.09
2023-01-05T08:53:16.383Z,12.08
2023-01-05T08:56:18.282Z,12.00
2023-01-05T08:59:19.668Z,12.02
2023-01-05T09:02:25.447Z,12.04
2023-01-05T09:05:27.496Z,12.07
2023-01-05T09:08:33.700Z,12.06
2023-01-05T09:11:35.179Z,12.02
2023-01-05T09:14:36.677Z,12.11
2023-01-05T09:17:38.409Z,12.05
2023-01-05T09:20:40.259Z,12.24
2023-01-05T09:23:41.901Z,12.21
2023-01-05T09:26:43.689Z,12.20
2023-01-05T09:29:45.151Z,12.27
2023-01-05T09:32:46.622Z,12.33
2023-01-05T09:35:55.183Z,12.33
2023-01-05T09:38:57.038Z,12.41
2023-01-05T09:42:02.800Z,12.43
2023-01-05T09:45:06.032Z,12.34
2023-01-05T09:48:14.346Z,12.30
2023-01-05T09:51:15.819Z,12.40
2023-01-05T09:54:18.671Z,12.42
2023-01-05T09:57:26.549Z,12.50
2023-01-05T10:00:29.289Z,12.42
2023-01-05T10:04:02.543Z,12.53
2023-01-05T10:06:57.254Z,12.54
2023-01-05T10:10:05.303Z,12.54
2023-01-05T10:13:11.204Z,12.58
2023-01-05T10:16:17.010Z,12.53
2023-01-05T10:19:20.375Z,12.64
2023-01-05T10:22:42.824Z,12.68
2023-01-05T10:25:53.505Z,12.61
2023-01-05T10:29:08.104Z,12.61
2023-01-05T10:32:31.597Z,12.66
2023-01-05T10:36:03.443Z,12.67
2023-01-05T10:39:27.958Z,12.63
2023-01-05T10:42:33.368Z,12.61
2023-01-05T10:45:51.178Z,12.51
2023-01-05T10:48:59.677Z,12.51
2023-01-05T10:52:01.626Z,12.48
2023-01-05T10:55:16.103Z,12.43
2023-01-05T10:58:27.492Z,12.44
2023-01-05T11:01:30.711Z,12.49
2023-01-05T11:04:35.450Z,12.42
2023-01-05T11:07:48.903Z,12.47
2023-01-05T11:10:55.435Z,12.47
2023-01-05T11:13:58.319Z,12.40
2023-01-05T11:17:07.542Z,12.46
2023-01-05T11:20:16.616Z,12.45
2023-01-05T11:23:36.167Z,12.39
2023-01-05T11:26:47.207Z,12.36
2023-01-05T11:30:20.232Z,12.42
2023-01-05T11:33:28.407Z,12.40
2023-01-05T11:36:29.852Z,12.55
2023-01-05T11:39:38.681Z,12.48
2023-01-05T11:42:43.400Z,12.52
2023-01-05T11:45:59.129Z,12.48
2023-01-05T11:49:00.840Z,12.67
2023-01-05T11:52:02.368Z,12.70
2023-01-05T11:55:25.178Z,12.98
2023-01-05T11:58:32.327Z,12.94
2023-01-05T12:02:16.949Z,12.96
2023-01-05T12:05:31.017Z,12.83
2023-01-05T12:08:45.296Z,12.95
2023-01-05T12:12:06.255Z,12.93
2023-01-05T12:15:35.648Z,12.83
2023-01-05T12:19:01.742Z,12.81
2023-01-05T12:22:29.068Z,12.80
2023-01-05T12:25:49.016Z,12.80
2023-01-05T12:30:43.412Z,12.74
2023-01-05T12:36:34.172Z,12.74
2023-01-05T12:39:55.819Z,12.77
2023-01-05T12:43:08.040Z,12.79
2023-01-05T12:46:33.993Z,12.74
2023-01-05T12:49:42.622Z,12.74
2023-01-05T12:52:47.690Z,12.71
2023-01-05T12:55:54.235Z,12.77
2023-01-05T12:59:17.380Z,12.80
2023-01-05T13:02:32.651Z,12.80
2023-01-05T13:05:51.449Z,12.69
2023-01-05T13:08:57.567Z,12.70
2023-01-05T13:12:06.454Z,12.75
2023-01-05T13:15:20.085Z,12.69
2023-01-05T13:18:24.402Z,12.68
2023-01-05T13:21:27.651Z,12.71
2023-01-05T13:24:38.099Z,12.76
2023-01-05T13:27:39.475Z,12.68
2023-01-05T13:30:53.129Z,12.73
2023-01-05T13:34:25.750Z,12.70
2023-01-05T13:37:41.560Z,12.81
2023-01-05T13:40:48.866Z,12.78
2023-01-05T13:44:12.054Z,12.67
2023-01-05T13:47:45.235Z,12.71
2023-01-05T13:51:17.774Z,12.68
2023-01-05T13:54:43.675Z,12.71
2023-01-05T13:57:56.559Z,12.66
2023-01-05T14:00:58.230Z,12.82
2023-01-05T14:04:00.526Z,12.74
2023-01-05T14:07:17.748Z,12.66
2023-01-05T14:10:31.719Z,12.64
2023-01-05T14:14:00.367Z,12.64
2023-01-05T14:17:01.847Z,12.64
2023-01-05T14:20:27.491Z,12.65
2023-01-05T14:23:31.818Z,12.69
2023-01-05T14:26:59.905Z,12.68
2023-01-05T14:30:02.101Z,12.71
2023-01-05T14:33:06.123Z,12.81
2023-01-05T14:36:24.980Z,12.68
2023-01-05T14:39:31.696Z,12.61
2023-01-05T14:42:39.917Z,12.67
2023-01-05T14:45:41.459Z,12.63
2023-01-05T14:48:58.972Z,12.57
2023-01-05T14:52:02.602Z,12.54
2023-01-05T14:55:07.067Z,12.58
2023-01-05T14:58:35.461Z,12.55
2023-01-05T15:02:00.239Z,12.53
2023-01-05T15:05:10.621Z,12.61
2023-01-05T15:08:46.097Z,12.53
2023-01-05T15:12:15.446Z,12.65
2023-01-05T15:15:28.728Z,12.64
2023-01-05T15:18:48.399Z,12.57
2023-01-05T15:22:13.346Z,12.50
2023-01-05T15:25:52.998Z,12.50
2023-01-05T15:29:39.690Z,12.44
2023-01-05T15:32:44.518Z,12.42
2023-01-05T15:36:01.208Z,12.47
2023-01-05T15:39:02.607Z,12.39
2023-01-05T15:42:08.502Z,12.33
2023-01-05T15:45:25.542Z,12.34
2023-01-05T15:48:39.845Z,12.35
2023-01-05T15:51:49.770Z,12.30
2023-01-05T15:55:11.558Z,12.40
2023-01-05T15:58:16.131Z,12.24
2023-01-05T16:01:17.722Z,12.29
2023-01-05T16:04:19.180Z,12.27
2023-01-05T16:07:20.596Z,12.26
2023-01-05T16:10:27.442Z,12.21
2023-01-05T16:13:43.531Z,12.20
2023-01-05T16:16:53.238Z,12.13
2023-01-05T16:20:01.103Z,12.17
2023-01-05T16:23:14.511Z,12.23
2023-01-05T16:26:18.800Z,12.21
2023-01-05T16:29:34.132Z,12.20
2023-01-05T16:32:37.958Z,12.19
2023-01-05T16:35:43.596Z,12.19
2023-01-05T16:38:45.823Z,12.17
2023-01-05T16:42:05.937Z,12.13
2023-01-05T16:45:17.563Z,12.15
2023-01-05T16:48:40.297Z,12.10
2023-01-05T16:51:42.660Z,12.07
2023-01-05T16:54:44.893Z,12.13
2023-01-05T16:57:46.291Z,12.03
2023-01-05T17:00:47.698Z,11.96
2023-01-05T17:03:49.334Z,11.99
2023-01-05T17:06:52.086Z,12.02
2023-01-05T17:09:54.247Z,11.97
2023-01-05T17:13:00.274Z,11.92
2023-01-05T17:16:03.831Z,11.85
2023-01-05T17:19:23.554Z,11.89
2023-01-05T17:22:25.083Z,11.90
2023-01-05T17:25:32.827Z,11.86
2023-01-05T17:28:34.490Z,11.81
2023-01-05T17:31:35.967Z,11.85
2023-01-05T17:34:38.783Z,11.89
2023-01-05T17:37:41.996Z,11.81
2023-01-05T17:40:43.523Z,11.79
2023-01-05T17:43:45.758Z,11.82
2023-01-05T17:46:47.776Z,11.81
2023-01-05T17:49:49.188Z,11.81
2023-01-05T17:52:50.596Z,11.78
2023-01-05T17:55:52.094Z,11.78
2023-01-05T17:58:53.557Z,11.74
2023-01-05T18:01:55.426Z,11.80
2023-01-05T18:04:56.915Z,11.70
2023-01-05T18:07:58.315Z,11.68
2023-01-05T18:11:07.359Z,11.72
2023-01-05T18:14:08.753Z,11.71
2023-01-05T18:17:10.465Z,11.74
2023-01-05T18:20:15.146Z,11.73
2023-01-05T18:23:19.311Z,11.70
2023-01-05T18:26:20.710Z,11.68
2023-01-05T18:29:22.115Z,11.66
2023-01-05T18:32:24.079Z,11.60
2023-01-05T18:35:25.499Z,11.65
2023-01-05T18:38:27.984Z,11.67
2023-01-05T18:41:29.513Z,11.67
2023-01-05T18:44:31.127Z,11.71
2023-01-05T18:47:32.542Z,11.75
2023-01-05T18:50:33.967Z,11.72
2023-01-05T18:53:38.945Z,11.70
2023-01-05T18:56:40.335Z,11.69
2023-01-05T18:59:41.991Z,11.65
2023-01-05T19:02:43.388Z,11.69
2023-01-05T19:05:44.853Z,11.66
2023-01-05T19:08:48.801Z,11.66
2023-01-05T19:11:50.253Z,11.72
2023-01-05T19:14:51.666Z,11.74
2023-01-05T19:17:53.405Z,11.75
2023-01-05T19:20:56.829Z,11.70
2023-01-05T19:23:59.972Z,11.66
2023-01-05T19:27:01.446Z,11.60
2023-01-05T19:30:02.934Z,11.59
2023-01-05T19:33:04.340Z,11.54
2023-01-05T19:36:12.403Z,11.64
2023-01-05T19:39:18.949Z,11.71
2023-01-05T19:42:20.359Z,11.68
2023-01-05T19:45:21.798Z,11.71
2023-01-05T19:48:23.192Z,11.63
2023-01-05T19:51:26.791Z,11.66
2023-01-05T19:54:28.617Z,11.59
2023-01-05T19:57:30.211Z,11.59
2023-01-05T20:00:31.665Z,11.58
2023-01-05T20:03:33.296Z,11.54
2023-01-05T20:06:38.155Z,11.53
2023-01-05T20:09:39.961Z,11.48
2023-01-05T20:12:41.393Z,11.44
2023-01-05T20:15:42.894Z,11.48
2023-01-05T20:18:44.331Z,11.49
2023-01-05T20:21:47.685Z,11.49
2023-01-05T20:24:49.080Z,11.50
2023-01-05T20:27:50.536Z,11.51
2023-01-05T20:30:51.933Z,11.46
2023-01-05T20:33:55.058Z,11.41
2023-01-05T20:36:56.615Z,11.47
2023-01-05T20:40:00.425Z,11.42
2023-01-05T20:43:02.620Z,11.42
2023-01-05T20:46:04.158Z,11.42
2023-01-05T20:49:06.137Z,11.40
2023-01-05T20:52:09.779Z,11.40
2023-01-05T20:55:11.233Z,11.38
2023-01-05T20:58:12.615Z,11.39
2023-01-05T21:01:15.101Z,11.42
2023-01-05T21:04:17.239Z,11.40
2023-01-05T21:07:22.780Z,11.42
2023-01-05T21:10:24.169Z,11.42
2023-01-05T21:13:32.046Z,11.42
2023-01-05T21:16:42.702Z,11.41
2023-01-05T21:19:44.492Z,11.42
2023-01-05T21:22:45.875Z,11.42
2023-01-05T21:26:06.097Z,11.44
2023-01-05T21:29:10.893Z,11.42
2023-01-05T21:32:12.464Z,11.42
2023-01-05T21:35:14.000Z,11.39
2023-01-05T21:38:15.445Z,11.38
2023-01-05T21:41:16.837Z,11.42
2023-01-05T21:44:19.790Z,11.36
2023-01-05T21:47:21.278Z,11.32
2023-01-05T21:50:42.328Z,11.34
2023-01-05T21:54:02.758Z,11.30
2023-01-05T21:57:04.608Z,11.24
2023-01-05T22:00:06.886Z,11.23
2023-01-05T22:03:08.698Z,11.22
2023-01-05T22:06:10.177Z,11.23
2023-01-05T22:09:11.566Z,11.28
2023-01-05T22:12:13.095Z,11.25
2023-01-05T22:15:14.481Z,11.21
2023-01-05T22:18:15.969Z,11.21
2023-01-05T22:21:17.537Z,11.23
2023-01-05T22:24:19.343Z,11.24
2023-01-05T22:27:20.788Z,11.25
2023-01-05T22:30:22.339Z,11.24
2023-01-05T22:33:23.752Z,11.24
2023-01-05T22:36:27.336Z,11.31
2023-01-05T22:39:28.740Z,11.33
2023-01-05T22:42:30.148Z,11.33
2023-01-05T22:45:32.743Z,11.41
2023-01-05T22:48:36.648Z,11.40
2023-01-05T22:51:41.023Z,11.40
2023-01-05T22:54:42.480Z,11.36
2023-01-05T22:57:43.919Z,11.35
2023-01-05T23:00:45.372Z,11.35
2023-01-05T23:03:47.666Z,11.33
2023-01-05T23:06:49.148Z,11.28
2023-01-05T23:09:50.587Z,11.24
2023-01-05T23:12:51.984Z,11.21
2023-01-05T23:15:55.396Z,11.18
2023-01-05T23:18:56.810Z,11.20
2023-01-05T23:21:58.215Z,11.23
2023-01-05T23:24:59.820Z,11.26
2023-01-05T23:28:01.208Z,11.23
2023-01-05T23:31:03.438Z,11.25
2023-01-05T23:34:04.908Z,11.28
2023-01-05T23:37:06.303Z,11.27
2023-01-05T23:40:08.243Z,11.28
2023-01-05T23:43:14.240Z,11.31
2023-01-05T23:46:20.194Z,11.42
2023-01-05T23:49:21.805Z,11.37
2023-01-05T23:52:23.192Z,11.45
2023-01-05T23:55:24.593Z,11.51
2023-01-05T23:58:25.981Z,11.52
